DKH5911 ZYTL-WMKK
Flight info
| Callsign | DKH5911 |
|---|---|
| Flight time | N/A |
| Altitude | 30100 |
| Route | KAR19D KARPI W5 GUMED V42 UKMEV V163 NOBUP W4 WXI A461 AKOMA/K0857S0980 A461 LKO R343 WUY R474 TEBAK/K0865F340 R474 NAKHA Q3 NAH N639 VILAO/N0469F340 N639 TIA M755 KISAN/K0867F340 M755 BITOD/N0468F340 M765 IGARI R208 VKR Y346 PULIP PULIP1J |
| Aircraft | A321/M-SDE3FGHIRWY/LB1 |
Departure
| Time | 2026-04-19 08:25 |
|---|---|
| Airport | Dalian Zhoushuizi International Airport (ZYTL) |
Arrival
| Time | N/A |
|---|---|
| Airport | Kuala Lumpur International Airport (WMKK) |
| Time | Latitude | Longitude | Altitude | Speed | Heading |
|---|---|---|---|---|---|
| 2026-04-19 08:01 | 38.96251 | 121.53664 | 105 ft | 0 kts | 182° |
| 2026-04-19 08:13 | 38.96264 | 121.53664 | 103 ft | 2 kts | 180° |
| 2026-04-19 08:13 | 38.96280 | 121.53665 | 103 ft | 2 kts | 179° |
| 2026-04-19 08:13 | 38.96296 | 121.53666 | 104 ft | 2 kts | 181° |
| 2026-04-19 08:14 | 38.96313 | 121.53666 | 104 ft | 2 kts | 183° |
| 2026-04-19 08:14 | 38.96346 | 121.53668 | 103 ft | 2 kts | 184° |
| 2026-04-19 08:14 | 38.96362 | 121.53670 | 104 ft | 2 kts | 184° |
| 2026-04-19 08:15 | 38.96378 | 121.53671 | 103 ft | 2 kts | 184° |
| 2026-04-19 08:15 | 38.96395 | 121.53670 | 103 ft | 2 kts | 157° |
| 2026-04-19 08:15 | 38.96408 | 121.53659 | 102 ft | 2 kts | 99° |
| 2026-04-19 08:15 | 38.96410 | 121.53639 | 102 ft | 1 kts | 93° |
| 2026-04-19 08:16 | 38.96410 | 121.53635 | 102 ft | 0 kts | 97° |
| 2026-04-19 08:19 | 38.96408 | 121.53653 | 102 ft | 5 kts | 97° |
| 2026-04-19 08:19 | 38.96404 | 121.53706 | 103 ft | 6 kts | 95° |
| 2026-04-19 08:19 | 38.96400 | 121.53766 | 103 ft | 7 kts | 95° |
| 2026-04-19 08:19 | 38.96395 | 121.53833 | 103 ft | 8 kts | 96° |
| 2026-04-19 08:20 | 38.96389 | 121.53907 | 103 ft | 9 kts | 96° |
| 2026-04-19 08:20 | 38.96383 | 121.53986 | 103 ft | 9 kts | 95° |
| 2026-04-19 08:20 | 38.96377 | 121.54071 | 103 ft | 10 kts | 95° |
| 2026-04-19 08:20 | 38.96370 | 121.54160 | 102 ft | 10 kts | 96° |
| 2026-04-19 08:21 | 38.96362 | 121.54269 | 102 ft | 14 kts | 95° |
| 2026-04-19 08:21 | 38.96352 | 121.54394 | 102 ft | 14 kts | 96° |
| 2026-04-19 08:21 | 38.96343 | 121.54523 | 101 ft | 15 kts | 95° |
| 2026-04-19 08:21 | 38.96333 | 121.54654 | 101 ft | 15 kts | 95° |
| 2026-04-19 08:22 | 38.96323 | 121.54789 | 100 ft | 16 kts | 95° |
| 2026-04-19 08:22 | 38.96308 | 121.54928 | 100 ft | 16 kts | 106° |
| 2026-04-19 08:22 | 38.96278 | 121.55067 | 99 ft | 16 kts | 97° |
| 2026-04-19 08:22 | 38.96267 | 121.55214 | 100 ft | 17 kts | 94° |
| 2026-04-19 08:23 | 38.96255 | 121.55364 | 99 ft | 17 kts | 94° |
| 2026-04-19 08:23 | 38.96244 | 121.55519 | 96 ft | 18 kts | 95° |
| 2026-04-19 08:23 | 38.96234 | 121.55637 | 95 ft | 12 kts | 96° |
| 2026-04-19 08:23 | 38.96282 | 121.55713 | 95 ft | 13 kts | 8° |
| 2026-04-19 08:24 | 38.96372 | 121.55726 | 94 ft | 14 kts | 7° |
| 2026-04-19 08:24 | 38.96433 | 121.55657 | 93 ft | 12 kts | 277° |
| 2026-04-19 08:24 | 38.96436 | 121.55580 | 95 ft | 0 kts | 276° |
| 2026-04-19 08:24 | 38.96438 | 121.55562 | 96 ft | 15 kts | 276° |
| 2026-04-19 08:25 | 38.96475 | 121.55063 | 100 ft | 93 kts | 275° |
| 2026-04-19 08:25 | 38.96559 | 121.53978 | 103 ft | 152 kts | 275° |
| 2026-04-19 08:25 | 38.96669 | 121.52436 | 332 ft | 182 kts | 275° |
| 2026-04-19 08:25 | 38.96805 | 121.50825 | 1223 ft | 178 kts | 270° |
| 2026-04-19 08:26 | 38.96919 | 121.49251 | 2063 ft | 176 kts | 270° |
| 2026-04-19 08:26 | 38.97042 | 121.47717 | 2570 ft | 175 kts | 270° |
| 2026-04-19 08:26 | 38.97163 | 121.46165 | 3042 ft | 175 kts | 270° |
| 2026-04-19 08:26 | 38.97277 | 121.44589 | 3384 ft | 183 kts | 270° |
| 2026-04-19 08:27 | 38.97395 | 121.42864 | 3511 ft | 203 kts | 270° |
| 2026-04-19 08:27 | 38.97526 | 121.40971 | 3635 ft | 223 kts | 271° |
| 2026-04-19 08:27 | 38.97690 | 121.38933 | 4011 ft | 234 kts | 277° |
| 2026-04-19 08:27 | 38.98460 | 121.37055 | 4570 ft | 249 kts | 314° |
| 2026-04-19 08:28 | 39.00048 | 121.36067 | 5119 ft | 265 kts | 347° |
| 2026-04-19 08:28 | 39.01913 | 121.35988 | 5689 ft | 273 kts | 1° |
| 2026-04-19 08:28 | 39.03796 | 121.36403 | 6284 ft | 279 kts | 21° |
| 2026-04-19 08:28 | 39.05360 | 121.37873 | 6793 ft | 283 kts | 53° |
| 2026-04-19 08:29 | 39.06307 | 121.40099 | 7126 ft | 292 kts | 78° |
| 2026-04-19 08:29 | 39.06438 | 121.42711 | 7437 ft | 296 kts | 100° |
| 2026-04-19 08:29 | 39.06246 | 121.45366 | 7955 ft | 300 kts | 100° |
| 2026-04-19 08:29 | 39.06045 | 121.48053 | 8533 ft | 303 kts | 100° |
| 2026-04-19 08:30 | 39.05838 | 121.50765 | 9109 ft | 306 kts | 100° |
| 2026-04-19 08:30 | 39.05467 | 121.53443 | 9668 ft | 302 kts | 117° |
| 2026-04-19 08:30 | 39.04391 | 121.55686 | 10175 ft | 292 kts | 141° |
| 2026-04-19 08:30 | 39.02751 | 121.57131 | 10673 ft | 284 kts | 163° |
| 2026-04-19 08:31 | 39.00852 | 121.57626 | 11167 ft | 278 kts | 185° |
| 2026-04-19 08:31 | 38.98960 | 121.57436 | 11664 ft | 280 kts | 188° |
| 2026-04-19 08:31 | 38.97022 | 121.57080 | 12179 ft | 281 kts | 198° |
| 2026-04-19 08:31 | 38.95201 | 121.56144 | 12541 ft | 288 kts | 211° |
| 2026-04-19 08:32 | 38.93487 | 121.54692 | 12674 ft | 304 kts | 215° |
| 2026-04-19 08:32 | 38.91688 | 121.53130 | 12813 ft | 320 kts | 214° |
| 2026-04-19 08:32 | 38.89797 | 121.51503 | 12939 ft | 335 kts | 214° |
| 2026-04-19 08:32 | 38.87812 | 121.49809 | 13070 ft | 350 kts | 214° |
| 2026-04-19 08:33 | 38.85746 | 121.48052 | 13202 ft | 364 kts | 214° |
| 2026-04-19 08:33 | 38.83594 | 121.46230 | 13319 ft | 378 kts | 214° |
| 2026-04-19 08:33 | 38.81368 | 121.44350 | 13658 ft | 386 kts | 214° |
| 2026-04-19 08:33 | 38.79115 | 121.42448 | 14090 ft | 389 kts | 214° |
| 2026-04-19 08:34 | 38.76843 | 121.40529 | 14551 ft | 392 kts | 214° |
| 2026-04-19 08:34 | 38.74557 | 121.38595 | 15018 ft | 395 kts | 215° |
| 2026-04-19 08:34 | 38.72255 | 121.36652 | 15464 ft | 398 kts | 215° |
| 2026-04-19 08:34 | 38.69938 | 121.34698 | 15906 ft | 400 kts | 215° |
| 2026-04-19 08:35 | 38.67631 | 121.32755 | 16325 ft | 403 kts | 216° |
| 2026-04-19 08:35 | 38.65285 | 121.30780 | 16734 ft | 406 kts | 216° |
| 2026-04-19 08:35 | 38.62916 | 121.28785 | 17141 ft | 409 kts | 216° |
| 2026-04-19 08:35 | 38.60536 | 121.26778 | 17537 ft | 411 kts | 216° |
| 2026-04-19 08:36 | 38.58144 | 121.24755 | 17914 ft | 414 kts | 216° |
| 2026-04-19 08:36 | 38.55765 | 121.22669 | 18287 ft | 415 kts | 221° |
| 2026-04-19 08:36 | 38.53652 | 121.20172 | 18621 ft | 413 kts | 231° |
| 2026-04-19 08:36 | 38.51881 | 121.17288 | 18948 ft | 413 kts | 236° |
| 2026-04-19 08:37 | 38.50166 | 121.14338 | 19279 ft | 416 kts | 236° |
| 2026-04-19 08:37 | 38.48430 | 121.11374 | 19602 ft | 418 kts | 235° |
| 2026-04-19 08:37 | 38.46683 | 121.08403 | 19931 ft | 420 kts | 235° |
| 2026-04-19 08:37 | 38.44921 | 121.05414 | 20253 ft | 422 kts | 235° |
| 2026-04-19 08:38 | 38.43147 | 121.02408 | 20511 ft | 426 kts | 235° |
| 2026-04-19 08:38 | 38.41361 | 120.99380 | 20795 ft | 429 kts | 235° |
| 2026-04-19 08:38 | 38.39560 | 120.96329 | 21100 ft | 431 kts | 235° |
| 2026-04-19 08:38 | 38.37755 | 120.93271 | 21452 ft | 432 kts | 235° |
| 2026-04-19 08:39 | 38.35942 | 120.90205 | 21793 ft | 433 kts | 235° |
| 2026-04-19 08:39 | 38.34126 | 120.87132 | 22101 ft | 435 kts | 235° |
| 2026-04-19 08:39 | 38.32302 | 120.84041 | 22395 ft | 437 kts | 235° |
| 2026-04-19 08:39 | 38.30467 | 120.80940 | 22649 ft | 440 kts | 235° |
| 2026-04-19 08:40 | 38.28623 | 120.77828 | 22919 ft | 442 kts | 235° |
| 2026-04-19 08:40 | 38.26710 | 120.74737 | 23186 ft | 446 kts | 230° |
| 2026-04-19 08:40 | 38.24448 | 120.72005 | 23444 ft | 452 kts | 221° |
| 2026-04-19 08:40 | 38.22741 | 120.70457 | 23600 ft | 456 kts | 215° |
| 2026-04-19 08:41 | 38.19930 | 120.68554 | 23828 ft | 461 kts | 209° |
| 2026-04-19 08:41 | 38.16062 | 120.66164 | 24159 ft | 463 kts | 209° |
| 2026-04-19 08:41 | 38.14145 | 120.64977 | 24289 ft | 465 kts | 209° |
| 2026-04-19 08:41 | 38.10255 | 120.62559 | 24691 ft | 465 kts | 209° |
| 2026-04-19 08:42 | 38.08331 | 120.61361 | 24912 ft | 465 kts | 209° |
| 2026-04-19 08:42 | 38.05471 | 120.59473 | 25249 ft | 462 kts | 215° |
| 2026-04-19 08:42 | 38.02882 | 120.57109 | 25577 ft | 457 kts | 224° |
| 2026-04-19 08:42 | 38.00641 | 120.54276 | 25909 ft | 453 kts | 233° |
| 2026-04-19 08:43 | 37.98792 | 120.51064 | 26225 ft | 449 kts | 241° |
| 2026-04-19 08:43 | 37.97193 | 120.47664 | 26507 ft | 450 kts | 242° |
| 2026-04-19 08:43 | 37.95591 | 120.44262 | 26835 ft | 449 kts | 242° |
| 2026-04-19 08:43 | 37.93987 | 120.40864 | 27163 ft | 449 kts | 242° |
| 2026-04-19 08:44 | 37.92390 | 120.37481 | 27549 ft | 447 kts | 242° |
| 2026-04-19 08:44 | 37.90799 | 120.34107 | 27953 ft | 445 kts | 242° |
| 2026-04-19 08:44 | 37.89217 | 120.30754 | 28321 ft | 443 kts | 242° |
| 2026-04-19 08:44 | 37.87637 | 120.27406 | 28661 ft | 443 kts | 242° |
| 2026-04-19 08:45 | 37.86060 | 120.24069 | 28978 ft | 442 kts | 242° |
| 2026-04-19 08:45 | 37.84477 | 120.20719 | 29213 ft | 444 kts | 242° |
| 2026-04-19 08:45 | 37.82890 | 120.17367 | 29504 ft | 444 kts | 242° |
| 2026-04-19 08:45 | 37.81303 | 120.14023 | 29803 ft | 444 kts | 242° |
| 2026-04-19 08:46 | 37.79713 | 120.10683 | 30106 ft | 443 kts | 242° |
| 2026-04-19 08:46 | 37.78133 | 120.07366 | 30520 ft | 438 kts | 242° |
| 2026-04-19 08:46 | 37.76710 | 120.04002 | 30910 ft | 430 kts | 250° |
| 2026-04-19 08:46 | 37.75755 | 120.00451 | 31265 ft | 423 kts | 259° |
| 2026-04-19 08:47 | 37.75275 | 119.96817 | 31611 ft | 417 kts | 268° |
| 2026-04-19 08:47 | 37.75053 | 119.93182 | 31967 ft | 414 kts | 268° |
| 2026-04-19 08:47 | 37.74825 | 119.89574 | 32274 ft | 411 kts | 268° |
| 2026-04-19 08:47 | 37.74590 | 119.85985 | 32591 ft | 409 kts | 268° |
| 2026-04-19 08:48 | 37.74354 | 119.82414 | 32931 ft | 406 kts | 268° |
| 2026-04-19 08:48 | 37.74119 | 119.78882 | 33286 ft | 402 kts | 268° |
| 2026-04-19 08:48 | 37.73884 | 119.75384 | 33659 ft | 398 kts | 268° |
| 2026-04-19 08:48 | 37.73652 | 119.71914 | 33923 ft | 396 kts | 268° |
| 2026-04-19 08:49 | 37.73195 | 119.64969 | 33962 ft | 397 kts | 268° |
| 2026-04-19 08:49 | 37.72729 | 119.58011 | 33958 ft | 398 kts | 268° |
| 2026-04-19 08:50 | 37.72258 | 119.51096 | 33956 ft | 398 kts | 268° |
| 2026-04-19 08:50 | 37.71779 | 119.44128 | 33955 ft | 398 kts | 268° |
| 2026-04-19 08:51 | 37.71297 | 119.37155 | 33954 ft | 399 kts | 268° |
| 2026-04-19 08:51 | 37.70811 | 119.30171 | 33946 ft | 399 kts | 268° |
| 2026-04-19 08:52 | 37.70325 | 119.23182 | 33938 ft | 400 kts | 268° |
| 2026-04-19 08:52 | 37.69834 | 119.16183 | 33946 ft | 400 kts | 268° |
| 2026-04-19 08:53 | 37.69335 | 119.09186 | 33949 ft | 401 kts | 267° |
| 2026-04-19 08:53 | 37.68826 | 119.02178 | 33954 ft | 401 kts | 267° |
| 2026-04-19 08:54 | 37.68316 | 118.95167 | 33956 ft | 401 kts | 267° |
| 2026-04-19 08:54 | 37.67807 | 118.88156 | 33956 ft | 401 kts | 267° |
| 2026-04-19 08:55 | 37.67288 | 118.81150 | 33957 ft | 401 kts | 267° |
| 2026-04-19 08:55 | 37.66709 | 118.74156 | 33955 ft | 401 kts | 265° |
| 2026-04-19 08:56 | 37.65830 | 118.67189 | 33951 ft | 402 kts | 263° |
| 2026-04-19 08:56 | 37.64849 | 118.60230 | 33950 ft | 402 kts | 263° |
| 2026-04-19 08:57 | 37.63901 | 118.53286 | 33953 ft | 402 kts | 263° |
| 2026-04-19 08:57 | 37.62988 | 118.46320 | 33955 ft | 402 kts | 263° |
| 2026-04-19 08:58 | 37.62086 | 118.39361 | 33955 ft | 402 kts | 263° |
| 2026-04-19 08:58 | 37.61174 | 118.32406 | 33960 ft | 402 kts | 263° |
| 2026-04-19 08:59 | 37.60252 | 118.25466 | 33959 ft | 402 kts | 263° |
| 2026-04-19 08:59 | 37.59323 | 118.18518 | 33954 ft | 401 kts | 263° |
| 2026-04-19 09:00 | 37.58392 | 118.11581 | 33953 ft | 401 kts | 263° |
| 2026-04-19 09:00 | 37.57456 | 118.04648 | 33960 ft | 401 kts | 263° |
| 2026-04-19 09:01 | 37.55897 | 117.97894 | 33957 ft | 406 kts | 249° |
| 2026-04-19 09:01 | 37.53554 | 117.91428 | 33955 ft | 406 kts | 249° |
| 2026-04-19 09:02 | 37.51224 | 117.85008 | 33955 ft | 406 kts | 250° |
| 2026-04-19 09:02 | 37.48889 | 117.78544 | 33954 ft | 405 kts | 250° |
| 2026-04-19 09:03 | 37.46548 | 117.72080 | 33930 ft | 407 kts | 250° |
| 2026-04-19 09:03 | 37.44190 | 117.65595 | 33929 ft | 408 kts | 250° |
| 2026-04-19 09:04 | 37.41832 | 117.59110 | 33937 ft | 408 kts | 250° |
| 2026-04-19 09:04 | 37.39459 | 117.52617 | 33943 ft | 409 kts | 250° |
| 2026-04-19 09:05 | 37.37076 | 117.46133 | 33969 ft | 409 kts | 250° |
| 2026-04-19 09:05 | 37.34696 | 117.39657 | 33951 ft | 407 kts | 250° |
| 2026-04-19 09:06 | 37.32373 | 117.33175 | 33951 ft | 407 kts | 250° |
| 2026-04-19 09:06 | 37.30072 | 117.26681 | 33947 ft | 407 kts | 250° |
| 2026-04-19 09:07 | 37.27751 | 117.20195 | 33963 ft | 407 kts | 250° |
| 2026-04-19 09:07 | 37.25415 | 117.13719 | 33979 ft | 407 kts | 250° |
| 2026-04-19 09:08 | 37.23083 | 117.07270 | 33979 ft | 406 kts | 250° |
| 2026-04-19 09:08 | 37.20749 | 117.00827 | 33964 ft | 405 kts | 250° |
| 2026-04-19 09:09 | 37.18414 | 116.94388 | 33974 ft | 405 kts | 250° |
| 2026-04-19 09:09 | 37.16078 | 116.87967 | 33970 ft | 405 kts | 250° |
| 2026-04-19 09:10 | 37.13733 | 116.81559 | 33985 ft | 404 kts | 251° |
| 2026-04-19 09:10 | 37.11480 | 116.75143 | 33991 ft | 401 kts | 252° |
| 2026-04-19 09:11 | 37.09335 | 116.68706 | 33969 ft | 400 kts | 253° |
| 2026-04-19 09:11 | 37.07203 | 116.62328 | 33971 ft | 399 kts | 252° |
| 2026-04-19 09:12 | 37.05022 | 116.55931 | 33973 ft | 399 kts | 252° |
| 2026-04-19 09:12 | 37.02837 | 116.49554 | 33976 ft | 398 kts | 252° |
| 2026-04-19 09:13 | 37.00656 | 116.43192 | 33977 ft | 398 kts | 252° |
| 2026-04-19 09:13 | 36.98478 | 116.36838 | 33979 ft | 397 kts | 252° |
| 2026-04-19 09:14 | 36.96302 | 116.30490 | 33943 ft | 398 kts | 252° |
| 2026-04-19 09:14 | 36.94107 | 116.24127 | 33961 ft | 399 kts | 251° |
| 2026-04-19 09:15 | 36.91905 | 116.17765 | 33971 ft | 399 kts | 251° |
| 2026-04-19 09:16 | 36.88604 | 116.08227 | 33979 ft | 399 kts | 251° |
| 2026-04-19 09:16 | 36.86406 | 116.01869 | 33978 ft | 398 kts | 251° |
| 2026-04-19 09:17 | 36.84200 | 115.95526 | 33965 ft | 399 kts | 251° |
| 2026-04-19 09:17 | 36.81982 | 115.89173 | 33952 ft | 399 kts | 251° |
| 2026-04-19 09:18 | 36.79761 | 115.82811 | 33957 ft | 400 kts | 251° |
| 2026-04-19 09:18 | 36.77525 | 115.76441 | 33967 ft | 401 kts | 251° |
| 2026-04-19 09:19 | 36.75288 | 115.70066 | 33971 ft | 401 kts | 251° |
| 2026-04-19 09:19 | 36.73045 | 115.63695 | 33984 ft | 402 kts | 250° |
| 2026-04-19 09:20 | 36.70795 | 115.57329 | 33963 ft | 401 kts | 250° |
| 2026-04-19 09:20 | 36.68549 | 115.50959 | 33967 ft | 402 kts | 250° |
| 2026-04-19 09:21 | 36.66293 | 115.44574 | 33976 ft | 403 kts | 250° |
| 2026-04-19 09:21 | 36.64023 | 115.38184 | 33983 ft | 403 kts | 250° |
| 2026-04-19 09:22 | 36.61753 | 115.31800 | 34005 ft | 403 kts | 250° |
| 2026-04-19 09:22 | 36.59480 | 115.25416 | 33990 ft | 403 kts | 250° |
| 2026-04-19 09:23 | 36.57224 | 115.19092 | 33971 ft | 403 kts | 250° |
| 2026-04-19 09:23 | 36.54335 | 115.13063 | 33963 ft | 414 kts | 234° |
| 2026-04-19 09:24 | 36.50175 | 115.08023 | 33960 ft | 419 kts | 229° |
| 2026-04-19 09:24 | 36.45947 | 115.03021 | 33957 ft | 420 kts | 230° |
| 2026-04-19 09:25 | 36.41711 | 114.98002 | 34006 ft | 421 kts | 230° |
| 2026-04-19 09:25 | 36.37080 | 114.93490 | 33947 ft | 433 kts | 214° |
| 2026-04-19 09:26 | 36.31247 | 114.91175 | 33948 ft | 453 kts | 193° |
| 2026-04-19 09:26 | 36.24920 | 114.90549 | 33954 ft | 457 kts | 191° |
| 2026-04-19 09:27 | 36.18582 | 114.89914 | 33951 ft | 457 kts | 192° |
| 2026-04-19 09:27 | 36.13303 | 114.89377 | 33948 ft | 458 kts | 192° |
| 2026-04-19 09:28 | 36.05878 | 114.88631 | 33950 ft | 458 kts | 191° |
| 2026-04-19 09:28 | 36.00596 | 114.88105 | 33955 ft | 459 kts | 191° |
| 2026-04-19 09:29 | 35.94224 | 114.87479 | 33928 ft | 459 kts | 192° |
| 2026-04-19 09:29 | 35.87845 | 114.86848 | 33928 ft | 461 kts | 192° |
| 2026-04-19 09:30 | 35.81439 | 114.86204 | 33936 ft | 462 kts | 192° |
| 2026-04-19 09:30 | 35.75031 | 114.85564 | 33947 ft | 463 kts | 191° |
| 2026-04-19 09:31 | 35.68595 | 114.84943 | 33928 ft | 464 kts | 191° |
| 2026-04-19 09:31 | 35.62140 | 114.84315 | 33929 ft | 465 kts | 192° |
| 2026-04-19 09:32 | 35.55676 | 114.83678 | 33933 ft | 466 kts | 191° |
| 2026-04-19 09:32 | 35.49217 | 114.83041 | 33929 ft | 466 kts | 191° |
| 2026-04-19 09:33 | 35.42737 | 114.82414 | 33934 ft | 467 kts | 191° |
| 2026-04-19 09:33 | 35.36303 | 114.81787 | 33941 ft | 467 kts | 191° |
| 2026-04-19 09:34 | 35.29776 | 114.81142 | 33938 ft | 468 kts | 191° |
| 2026-04-19 09:34 | 35.23291 | 114.80510 | 33950 ft | 468 kts | 191° |
| 2026-04-19 09:35 | 35.16844 | 114.79883 | 33955 ft | 468 kts | 191° |
| 2026-04-19 09:35 | 35.10351 | 114.79251 | 33963 ft | 468 kts | 191° |
| 2026-04-19 09:36 | 35.03865 | 114.78623 | 33946 ft | 468 kts | 191° |
| 2026-04-19 09:36 | 34.97374 | 114.77997 | 33960 ft | 468 kts | 191° |
| 2026-04-19 09:37 | 34.90888 | 114.77372 | 33964 ft | 468 kts | 191° |
| 2026-04-19 09:37 | 34.84395 | 114.76746 | 33971 ft | 468 kts | 191° |
| 2026-04-19 09:38 | 34.77897 | 114.76126 | 33968 ft | 468 kts | 191° |
| 2026-04-19 09:38 | 34.71409 | 114.75501 | 33973 ft | 468 kts | 191° |
| 2026-04-19 09:39 | 34.64914 | 114.74869 | 33976 ft | 468 kts | 192° |
| 2026-04-19 09:39 | 34.58416 | 114.74221 | 33964 ft | 469 kts | 192° |
| 2026-04-19 09:40 | 34.51911 | 114.73586 | 33972 ft | 469 kts | 192° |
| 2026-04-19 09:40 | 34.45402 | 114.72958 | 33976 ft | 470 kts | 192° |
| 2026-04-19 09:41 | 34.38883 | 114.72326 | 33978 ft | 470 kts | 192° |
| 2026-04-19 09:41 | 34.32367 | 114.71698 | 33958 ft | 470 kts | 192° |
| 2026-04-19 09:42 | 34.25845 | 114.71062 | 33962 ft | 471 kts | 192° |
| 2026-04-19 09:42 | 34.19316 | 114.70443 | 33970 ft | 471 kts | 192° |
| 2026-04-19 09:43 | 34.12780 | 114.69834 | 33951 ft | 471 kts | 192° |
| 2026-04-19 09:43 | 34.06278 | 114.69223 | 33953 ft | 472 kts | 192° |
| 2026-04-19 09:44 | 33.99722 | 114.68604 | 33963 ft | 473 kts | 192° |
| 2026-04-19 09:44 | 33.93160 | 114.67990 | 33971 ft | 474 kts | 192° |
| 2026-04-19 09:45 | 33.86587 | 114.67375 | 33977 ft | 474 kts | 192° |
| 2026-04-19 09:45 | 33.80007 | 114.66764 | 33983 ft | 474 kts | 192° |
| 2026-04-19 09:46 | 33.73423 | 114.66148 | 33983 ft | 474 kts | 192° |
| 2026-04-19 09:46 | 33.66846 | 114.65534 | 33970 ft | 474 kts | 192° |
| 2026-04-19 09:47 | 33.60266 | 114.64896 | 33977 ft | 475 kts | 192° |
| 2026-04-19 09:47 | 33.53678 | 114.64239 | 33981 ft | 475 kts | 192° |
| 2026-04-19 09:48 | 33.47086 | 114.63590 | 33978 ft | 475 kts | 192° |
| 2026-04-19 09:48 | 33.40497 | 114.62943 | 33960 ft | 475 kts | 191° |
| 2026-04-19 09:49 | 33.33900 | 114.62292 | 33969 ft | 475 kts | 191° |
| 2026-04-19 09:49 | 33.27345 | 114.61642 | 33976 ft | 476 kts | 191° |
| 2026-04-19 09:50 | 33.20748 | 114.60994 | 33966 ft | 476 kts | 191° |
| 2026-04-19 09:50 | 33.14145 | 114.60350 | 33970 ft | 476 kts | 191° |
| 2026-04-19 09:51 | 33.07542 | 114.59709 | 33974 ft | 476 kts | 191° |
| 2026-04-19 09:51 | 33.00945 | 114.59071 | 33974 ft | 476 kts | 191° |
| 2026-04-19 09:52 | 32.94343 | 114.58430 | 33962 ft | 475 kts | 191° |
| 2026-04-19 09:52 | 32.87752 | 114.57792 | 33981 ft | 474 kts | 191° |
| 2026-04-19 09:53 | 32.81176 | 114.57150 | 33990 ft | 474 kts | 191° |
| 2026-04-19 09:53 | 32.74612 | 114.56510 | 33979 ft | 473 kts | 191° |
| 2026-04-19 09:54 | 32.68055 | 114.55877 | 33975 ft | 472 kts | 191° |
| 2026-04-19 09:54 | 32.61510 | 114.55252 | 33979 ft | 472 kts | 191° |
| 2026-04-19 09:55 | 32.54964 | 114.54623 | 33978 ft | 471 kts | 191° |
| 2026-04-19 09:55 | 32.48431 | 114.53985 | 33957 ft | 471 kts | 191° |
| 2026-04-19 09:56 | 32.41902 | 114.53351 | 33962 ft | 471 kts | 191° |
| 2026-04-19 09:56 | 32.35371 | 114.52726 | 33968 ft | 471 kts | 191° |
| 2026-04-19 09:57 | 32.28839 | 114.52103 | 33973 ft | 471 kts | 191° |
| 2026-04-19 09:57 | 32.22314 | 114.51484 | 33958 ft | 470 kts | 191° |
| 2026-04-19 09:58 | 32.15786 | 114.50870 | 33965 ft | 470 kts | 191° |
| 2026-04-19 09:58 | 32.09308 | 114.50256 | 33970 ft | 470 kts | 191° |
| 2026-04-19 09:59 | 32.02785 | 114.49631 | 33976 ft | 470 kts | 191° |
| 2026-04-19 09:59 | 31.96267 | 114.49015 | 33956 ft | 470 kts | 191° |
| 2026-04-19 10:00 | 31.89735 | 114.48404 | 33961 ft | 471 kts | 191° |
| 2026-04-19 10:00 | 31.83207 | 114.47787 | 33970 ft | 471 kts | 191° |
| 2026-04-19 10:01 | 31.76664 | 114.47174 | 33974 ft | 472 kts | 191° |
| 2026-04-19 10:01 | 31.70121 | 114.46567 | 33965 ft | 472 kts | 191° |
| 2026-04-19 10:02 | 31.63573 | 114.45944 | 33973 ft | 472 kts | 192° |
| 2026-04-19 10:02 | 31.57024 | 114.45315 | 33979 ft | 472 kts | 191° |
| 2026-04-19 10:03 | 31.50462 | 114.44696 | 33982 ft | 473 kts | 191° |
| 2026-04-19 10:03 | 31.43912 | 114.44077 | 33980 ft | 473 kts | 191° |
| 2026-04-19 10:04 | 31.37348 | 114.43457 | 33982 ft | 473 kts | 192° |
| 2026-04-19 10:04 | 31.30988 | 114.42073 | 33979 ft | 458 kts | 206° |
| 2026-04-19 10:05 | 31.25217 | 114.39122 | 33963 ft | 452 kts | 212° |
| 2026-04-19 10:05 | 31.19495 | 114.36087 | 33972 ft | 452 kts | 211° |
| 2026-04-19 10:06 | 31.13759 | 114.33070 | 33976 ft | 452 kts | 211° |
| 2026-04-19 10:06 | 31.08028 | 114.30056 | 33978 ft | 452 kts | 211° |
| 2026-04-19 10:07 | 31.02302 | 114.27037 | 33972 ft | 451 kts | 211° |
| 2026-04-19 10:07 | 30.96631 | 114.24042 | 33983 ft | 450 kts | 211° |
| 2026-04-19 10:08 | 30.90905 | 114.21023 | 33992 ft | 448 kts | 211° |
| 2026-04-19 10:08 | 30.85260 | 114.18056 | 33988 ft | 447 kts | 211° |
| 2026-04-19 10:09 | 30.79596 | 114.15081 | 33977 ft | 447 kts | 211° |
| 2026-04-19 10:09 | 30.73940 | 114.12119 | 33998 ft | 445 kts | 211° |
| 2026-04-19 10:10 | 30.68305 | 114.09177 | 33998 ft | 443 kts | 211° |
| 2026-04-19 10:10 | 30.62690 | 114.06245 | 33992 ft | 442 kts | 210° |
| 2026-04-19 10:11 | 30.57086 | 114.03317 | 33993 ft | 441 kts | 210° |
| 2026-04-19 10:11 | 30.51481 | 114.00402 | 33984 ft | 441 kts | 210° |
| 2026-04-19 10:12 | 30.45873 | 113.97501 | 33989 ft | 441 kts | 210° |
| 2026-04-19 10:12 | 30.40266 | 113.94612 | 33988 ft | 441 kts | 210° |
| 2026-04-19 10:13 | 30.34652 | 113.91728 | 33990 ft | 441 kts | 210° |
| 2026-04-19 10:13 | 30.29038 | 113.88833 | 33970 ft | 442 kts | 210° |
| 2026-04-19 10:14 | 30.23417 | 113.85936 | 33971 ft | 443 kts | 210° |
| 2026-04-19 10:14 | 30.17784 | 113.83045 | 33977 ft | 443 kts | 210° |
| 2026-04-19 10:15 | 30.12142 | 113.80152 | 33978 ft | 443 kts | 210° |
| 2026-04-19 10:15 | 30.06542 | 113.77276 | 33969 ft | 444 kts | 210° |
| 2026-04-19 10:16 | 30.00900 | 113.74386 | 33975 ft | 444 kts | 210° |
| 2026-04-19 10:16 | 29.95257 | 113.71502 | 33982 ft | 443 kts | 210° |
| 2026-04-19 10:17 | 29.89755 | 113.68390 | 33980 ft | 435 kts | 219° |
| 2026-04-19 10:17 | 29.84830 | 113.64377 | 33973 ft | 433 kts | 220° |
| 2026-04-19 10:18 | 29.80715 | 113.61016 | 33976 ft | 433 kts | 220° |
| 2026-04-19 10:18 | 29.75799 | 113.57007 | 33979 ft | 433 kts | 220° |
| 2026-04-19 10:19 | 29.68463 | 113.51030 | 33981 ft | 433 kts | 221° |
| 2026-04-19 10:19 | 29.63549 | 113.47024 | 33980 ft | 433 kts | 220° |
| 2026-04-19 10:20 | 29.58643 | 113.43028 | 33965 ft | 433 kts | 220° |
| 2026-04-19 10:20 | 29.53723 | 113.39032 | 33973 ft | 433 kts | 220° |
| 2026-04-19 10:21 | 29.48809 | 113.35038 | 33976 ft | 433 kts | 220° |
| 2026-04-19 10:21 | 29.43888 | 113.31044 | 33975 ft | 433 kts | 220° |
| 2026-04-19 10:22 | 29.38964 | 113.27060 | 33966 ft | 433 kts | 220° |
| 2026-04-19 10:22 | 29.34041 | 113.23080 | 33966 ft | 433 kts | 220° |
| 2026-04-19 10:23 | 29.29120 | 113.19084 | 33970 ft | 434 kts | 220° |
| 2026-04-19 10:23 | 29.24205 | 113.15076 | 33981 ft | 434 kts | 220° |
| 2026-04-19 10:24 | 29.19278 | 113.11067 | 33992 ft | 434 kts | 220° |
| 2026-04-19 10:24 | 29.14346 | 113.07072 | 33971 ft | 435 kts | 219° |
| 2026-04-19 10:25 | 29.09409 | 113.03070 | 33988 ft | 435 kts | 220° |
| 2026-04-19 10:25 | 29.04464 | 112.99064 | 33989 ft | 435 kts | 219° |
| 2026-04-19 10:26 | 28.99546 | 112.95098 | 33976 ft | 436 kts | 219° |
| 2026-04-19 10:26 | 28.94567 | 112.91083 | 33978 ft | 435 kts | 219° |
| 2026-04-19 10:27 | 28.89645 | 112.87115 | 33973 ft | 436 kts | 220° |
| 2026-04-19 10:27 | 28.84687 | 112.83125 | 33980 ft | 436 kts | 220° |
| 2026-04-19 10:28 | 28.79729 | 112.79135 | 33978 ft | 436 kts | 220° |
| 2026-04-19 10:28 | 28.74768 | 112.75149 | 33966 ft | 437 kts | 219° |
| 2026-04-19 10:29 | 28.69797 | 112.71159 | 33973 ft | 437 kts | 219° |
| 2026-04-19 10:29 | 28.64812 | 112.67163 | 33955 ft | 438 kts | 220° |
| 2026-04-19 10:30 | 28.59826 | 112.63172 | 33971 ft | 439 kts | 220° |
| 2026-04-19 10:30 | 28.54822 | 112.59168 | 33973 ft | 440 kts | 220° |
| 2026-04-19 10:31 | 28.49816 | 112.55170 | 33978 ft | 440 kts | 220° |
| 2026-04-19 10:31 | 28.44804 | 112.51167 | 33972 ft | 440 kts | 220° |
| 2026-04-19 10:32 | 28.39817 | 112.47200 | 33978 ft | 441 kts | 220° |
| 2026-04-19 10:32 | 28.34796 | 112.43212 | 33985 ft | 440 kts | 219° |
| 2026-04-19 10:33 | 28.29786 | 112.39226 | 33987 ft | 440 kts | 219° |
| 2026-04-19 10:33 | 28.24769 | 112.35244 | 33988 ft | 440 kts | 219° |
| 2026-04-19 10:34 | 28.19753 | 112.31278 | 33979 ft | 440 kts | 219° |
| 2026-04-19 10:34 | 28.14749 | 112.27296 | 33987 ft | 440 kts | 219° |
| 2026-04-19 10:35 | 28.09776 | 112.23252 | 33985 ft | 440 kts | 220° |
| 2026-04-19 10:35 | 28.04769 | 112.19261 | 33994 ft | 442 kts | 217° |
| 2026-04-19 10:36 | 27.99518 | 112.15606 | 33995 ft | 443 kts | 215° |
| 2026-04-19 10:36 | 27.94188 | 112.12086 | 33987 ft | 443 kts | 215° |
| 2026-04-19 10:37 | 27.88931 | 112.08486 | 33997 ft | 441 kts | 216° |
| 2026-04-19 10:37 | 27.83724 | 112.04814 | 34000 ft | 441 kts | 216° |
| 2026-04-19 10:38 | 27.78525 | 112.01146 | 33997 ft | 440 kts | 216° |
| 2026-04-19 10:38 | 27.73325 | 111.97512 | 33997 ft | 440 kts | 216° |
| 2026-04-19 10:39 | 27.68113 | 111.93879 | 33988 ft | 440 kts | 216° |
| 2026-04-19 10:39 | 27.62941 | 111.90272 | 33989 ft | 440 kts | 216° |
| 2026-04-19 10:40 | 27.57740 | 111.86651 | 33990 ft | 440 kts | 216° |
| 2026-04-19 10:40 | 27.52527 | 111.83027 | 33987 ft | 440 kts | 216° |
| 2026-04-19 10:41 | 27.47312 | 111.79413 | 33977 ft | 440 kts | 215° |
| 2026-04-19 10:41 | 27.42084 | 111.75789 | 33951 ft | 443 kts | 215° |
| 2026-04-19 10:42 | 27.36827 | 111.72142 | 33951 ft | 444 kts | 215° |
| 2026-04-19 10:42 | 27.31550 | 111.68496 | 33955 ft | 445 kts | 215° |
| 2026-04-19 10:43 | 27.26267 | 111.64855 | 33957 ft | 446 kts | 215° |
| 2026-04-19 10:43 | 27.20977 | 111.61202 | 33952 ft | 446 kts | 215° |
| 2026-04-19 10:44 | 27.15686 | 111.57559 | 33965 ft | 447 kts | 215° |
| 2026-04-19 10:44 | 27.10328 | 111.54002 | 33975 ft | 447 kts | 214° |
| 2026-04-19 10:45 | 27.04946 | 111.50498 | 33972 ft | 447 kts | 214° |
| 2026-04-19 10:45 | 26.99573 | 111.46988 | 33975 ft | 447 kts | 214° |
| 2026-04-19 10:46 | 26.94205 | 111.43461 | 33965 ft | 447 kts | 214° |
| 2026-04-19 10:46 | 26.88887 | 111.39873 | 33974 ft | 445 kts | 217° |
| 2026-04-19 10:47 | 26.83756 | 111.36076 | 33973 ft | 444 kts | 218° |
| 2026-04-19 10:47 | 26.78638 | 111.32210 | 33974 ft | 445 kts | 218° |
| 2026-04-19 10:48 | 26.73478 | 111.28381 | 33970 ft | 445 kts | 217° |
| 2026-04-19 10:48 | 26.68295 | 111.24598 | 33969 ft | 445 kts | 217° |
| 2026-04-19 10:49 | 26.63106 | 111.20829 | 33974 ft | 445 kts | 217° |
| 2026-04-19 10:49 | 26.57922 | 111.17044 | 33971 ft | 445 kts | 217° |
| 2026-04-19 10:50 | 26.52665 | 111.13361 | 33977 ft | 446 kts | 216° |
| 2026-04-19 10:50 | 26.47350 | 111.09785 | 33983 ft | 445 kts | 216° |
| 2026-04-19 10:51 | 26.42053 | 111.06226 | 33975 ft | 444 kts | 216° |
| 2026-04-19 10:51 | 26.36795 | 111.02649 | 33979 ft | 443 kts | 216° |
| 2026-04-19 10:52 | 26.31546 | 110.99060 | 33979 ft | 442 kts | 216° |
| 2026-04-19 10:52 | 26.26311 | 110.95500 | 33972 ft | 441 kts | 216° |
| 2026-04-19 10:53 | 26.21077 | 110.91952 | 33977 ft | 441 kts | 216° |
| 2026-04-19 10:53 | 26.15826 | 110.88396 | 33952 ft | 440 kts | 215° |
| 2026-04-19 10:54 | 26.10601 | 110.84858 | 33968 ft | 440 kts | 215° |
| 2026-04-19 10:54 | 26.05373 | 110.81317 | 33965 ft | 440 kts | 216° |
| 2026-04-19 10:55 | 26.00149 | 110.77763 | 33963 ft | 441 kts | 216° |
| 2026-04-19 10:55 | 25.94908 | 110.74205 | 33953 ft | 442 kts | 215° |
| 2026-04-19 10:56 | 25.89652 | 110.70650 | 33963 ft | 442 kts | 216° |
| 2026-04-19 10:56 | 25.84440 | 110.67116 | 33967 ft | 442 kts | 216° |
| 2026-04-19 10:57 | 25.79177 | 110.63557 | 33967 ft | 443 kts | 215° |
| 2026-04-19 10:57 | 25.73918 | 110.59995 | 33973 ft | 443 kts | 216° |
| 2026-04-19 10:58 | 25.68688 | 110.56385 | 33973 ft | 443 kts | 216° |
| 2026-04-19 10:58 | 25.63471 | 110.52746 | 33969 ft | 442 kts | 217° |
| 2026-04-19 10:59 | 25.58263 | 110.49122 | 33976 ft | 442 kts | 216° |
| 2026-04-19 10:59 | 25.53087 | 110.45482 | 33975 ft | 441 kts | 218° |
| 2026-04-19 11:00 | 25.47987 | 110.41710 | 33977 ft | 441 kts | 218° |
| 2026-04-19 11:00 | 25.42907 | 110.37913 | 33974 ft | 441 kts | 218° |
| 2026-04-19 11:01 | 25.37814 | 110.34123 | 33956 ft | 441 kts | 218° |
| 2026-04-19 11:01 | 25.32767 | 110.30359 | 33954 ft | 441 kts | 219° |
| 2026-04-19 11:02 | 25.27671 | 110.26564 | 33955 ft | 441 kts | 218° |
| 2026-04-19 11:02 | 25.22578 | 110.22784 | 33955 ft | 441 kts | 218° |
| 2026-04-19 11:03 | 25.17486 | 110.19010 | 33948 ft | 441 kts | 219° |
| 2026-04-19 11:03 | 25.12400 | 110.15216 | 33940 ft | 441 kts | 219° |
| 2026-04-19 11:04 | 25.07317 | 110.11423 | 33961 ft | 440 kts | 219° |
| 2026-04-19 11:04 | 25.02252 | 110.07647 | 33968 ft | 439 kts | 219° |
| 2026-04-19 11:05 | 24.97193 | 110.03881 | 33974 ft | 439 kts | 219° |
| 2026-04-19 11:05 | 24.92134 | 110.00114 | 33983 ft | 438 kts | 219° |
| 2026-04-19 11:06 | 24.87112 | 109.96382 | 33969 ft | 438 kts | 219° |
| 2026-04-19 11:06 | 24.82027 | 109.92612 | 33972 ft | 438 kts | 219° |
| 2026-04-19 11:07 | 24.77003 | 109.88881 | 33980 ft | 438 kts | 219° |
| 2026-04-19 11:07 | 24.72768 | 109.85748 | 33983 ft | 438 kts | 219° |
| 2026-04-19 11:08 | 24.66886 | 109.81392 | 33983 ft | 438 kts | 219° |
| 2026-04-19 11:08 | 24.61838 | 109.77646 | 33967 ft | 439 kts | 219° |
| 2026-04-19 11:09 | 24.56783 | 109.73881 | 33956 ft | 440 kts | 219° |
| 2026-04-19 11:09 | 24.51705 | 109.70103 | 33952 ft | 441 kts | 219° |
| 2026-04-19 11:10 | 24.47452 | 109.66939 | 33952 ft | 441 kts | 219° |
| 2026-04-19 11:10 | 24.42405 | 109.63189 | 33962 ft | 441 kts | 219° |
| 2026-04-19 11:11 | 24.37308 | 109.59425 | 33963 ft | 442 kts | 219° |
| 2026-04-19 11:11 | 24.32204 | 109.55660 | 33962 ft | 442 kts | 219° |
| 2026-04-19 11:12 | 24.27110 | 109.51908 | 33977 ft | 441 kts | 219° |
| 2026-04-19 11:12 | 24.22018 | 109.48149 | 33978 ft | 441 kts | 219° |
| 2026-04-19 11:13 | 24.16932 | 109.44407 | 33977 ft | 441 kts | 219° |
| 2026-04-19 11:13 | 24.11840 | 109.40671 | 33980 ft | 440 kts | 219° |
| 2026-04-19 11:14 | 24.06755 | 109.36939 | 33982 ft | 440 kts | 219° |
| 2026-04-19 11:14 | 24.01672 | 109.33208 | 33981 ft | 440 kts | 219° |
| 2026-04-19 11:15 | 23.96588 | 109.29485 | 33980 ft | 440 kts | 219° |
| 2026-04-19 11:15 | 23.91502 | 109.25764 | 33975 ft | 440 kts | 219° |
| 2026-04-19 11:16 | 23.86451 | 109.22067 | 33978 ft | 440 kts | 219° |
| 2026-04-19 11:16 | 23.81370 | 109.18353 | 33981 ft | 439 kts | 219° |
| 2026-04-19 11:17 | 23.76293 | 109.14632 | 33961 ft | 440 kts | 219° |
| 2026-04-19 11:17 | 23.71350 | 109.10637 | 33959 ft | 439 kts | 223° |
| 2026-04-19 11:18 | 23.66617 | 109.06476 | 33960 ft | 440 kts | 223° |
| 2026-04-19 11:18 | 23.61848 | 109.02299 | 33965 ft | 441 kts | 223° |
| 2026-04-19 11:19 | 23.57021 | 108.98171 | 33969 ft | 441 kts | 222° |
| 2026-04-19 11:19 | 23.52164 | 108.94055 | 33976 ft | 442 kts | 222° |
| 2026-04-19 11:20 | 23.47313 | 108.89944 | 33975 ft | 442 kts | 222° |
| 2026-04-19 11:20 | 23.42476 | 108.85831 | 33977 ft | 441 kts | 222° |
| 2026-04-19 11:21 | 23.37641 | 108.81722 | 33982 ft | 441 kts | 222° |
| 2026-04-19 11:22 | 23.30378 | 108.75561 | 33981 ft | 441 kts | 222° |
| 2026-04-19 11:22 | 23.25534 | 108.71459 | 33985 ft | 442 kts | 222° |
| 2026-04-19 11:23 | 23.20685 | 108.67353 | 33990 ft | 442 kts | 223° |
| 2026-04-19 11:23 | 23.15841 | 108.63249 | 33999 ft | 441 kts | 223° |
| 2026-04-19 11:24 | 23.11006 | 108.59154 | 34004 ft | 440 kts | 223° |
| 2026-04-19 11:24 | 23.06181 | 108.55067 | 33998 ft | 439 kts | 223° |
| 2026-04-19 11:25 | 23.01366 | 108.50993 | 33995 ft | 439 kts | 223° |
| 2026-04-19 11:25 | 22.96534 | 108.46915 | 33996 ft | 440 kts | 223° |
| 2026-04-19 11:26 | 22.91698 | 108.42838 | 33968 ft | 441 kts | 223° |
| 2026-04-19 11:26 | 22.86845 | 108.38749 | 33971 ft | 442 kts | 223° |
| 2026-04-19 11:27 | 22.81979 | 108.34655 | 33975 ft | 443 kts | 223° |
| 2026-04-19 11:27 | 22.77119 | 108.30564 | 33977 ft | 443 kts | 223° |
| 2026-04-19 11:28 | 22.72244 | 108.26467 | 33980 ft | 443 kts | 223° |
| 2026-04-19 11:28 | 22.67366 | 108.22370 | 33963 ft | 444 kts | 223° |
| 2026-04-19 11:29 | 22.62568 | 108.18233 | 33949 ft | 442 kts | 229° |
| 2026-04-19 11:29 | 22.58942 | 108.12998 | 33949 ft | 432 kts | 247° |
| 2026-04-19 11:30 | 22.57167 | 108.06862 | 33951 ft | 427 kts | 262° |
| 2026-04-19 11:30 | 22.56063 | 108.00544 | 33959 ft | 428 kts | 261° |
| 2026-04-19 11:31 | 22.54932 | 107.94212 | 33970 ft | 429 kts | 261° |
| 2026-04-19 11:31 | 22.53805 | 107.87872 | 33976 ft | 429 kts | 261° |
| 2026-04-19 11:32 | 22.52683 | 107.81526 | 33983 ft | 430 kts | 261° |
| 2026-04-19 11:32 | 22.51550 | 107.75181 | 33986 ft | 430 kts | 261° |
| 2026-04-19 11:33 | 22.50417 | 107.68840 | 33991 ft | 430 kts | 261° |
| 2026-04-19 11:33 | 22.49286 | 107.62493 | 33991 ft | 430 kts | 261° |
| 2026-04-19 11:34 | 22.48155 | 107.56145 | 33989 ft | 430 kts | 261° |
| 2026-04-19 11:34 | 22.47017 | 107.49805 | 33988 ft | 430 kts | 261° |
| 2026-04-19 11:35 | 22.45872 | 107.43467 | 33973 ft | 430 kts | 261° |
| 2026-04-19 11:35 | 22.44723 | 107.37110 | 33973 ft | 431 kts | 261° |
| 2026-04-19 11:36 | 22.43583 | 107.30791 | 33979 ft | 431 kts | 261° |
| 2026-04-19 11:36 | 22.42432 | 107.24427 | 33984 ft | 432 kts | 261° |
| 2026-04-19 11:37 | 22.41292 | 107.18062 | 33984 ft | 432 kts | 261° |
| 2026-04-19 11:37 | 22.40151 | 107.11685 | 33986 ft | 432 kts | 261° |
| 2026-04-19 11:38 | 22.39011 | 107.05312 | 33987 ft | 432 kts | 261° |
| 2026-04-19 11:38 | 22.37865 | 106.98952 | 33995 ft | 432 kts | 260° |
| 2026-04-19 11:39 | 22.36710 | 106.92584 | 33994 ft | 432 kts | 260° |
| 2026-04-19 11:39 | 22.34608 | 106.86512 | 33991 ft | 437 kts | 241° |
| 2026-04-19 11:40 | 22.30655 | 106.81494 | 33992 ft | 443 kts | 228° |
| 2026-04-19 11:40 | 22.26253 | 106.76826 | 33991 ft | 443 kts | 228° |
| 2026-04-19 11:41 | 22.21863 | 106.72150 | 33981 ft | 444 kts | 228° |
| 2026-04-19 11:41 | 22.17450 | 106.67487 | 33980 ft | 446 kts | 224° |
| 2026-04-19 11:42 | 22.12632 | 106.63247 | 33986 ft | 447 kts | 222° |
| 2026-04-19 11:42 | 22.07793 | 106.59024 | 33993 ft | 448 kts | 223° |
| 2026-04-19 11:43 | 22.02951 | 106.54797 | 33999 ft | 448 kts | 222° |
| 2026-04-19 11:43 | 21.97995 | 106.50714 | 33996 ft | 452 kts | 214° |
| 2026-04-19 11:44 | 21.92143 | 106.48232 | 33982 ft | 462 kts | 196° |
| 2026-04-19 11:44 | 21.85860 | 106.46744 | 33979 ft | 463 kts | 196° |
| 2026-04-19 11:45 | 21.79557 | 106.45228 | 33983 ft | 464 kts | 197° |
| 2026-04-19 11:45 | 21.73253 | 106.43707 | 33989 ft | 465 kts | 197° |
| 2026-04-19 11:46 | 21.66942 | 106.42195 | 33995 ft | 465 kts | 196° |
| 2026-04-19 11:46 | 21.60620 | 106.40675 | 33977 ft | 466 kts | 196° |
| 2026-04-19 11:47 | 21.54292 | 106.39159 | 33970 ft | 467 kts | 196° |
| 2026-04-19 11:47 | 21.47932 | 106.37644 | 33970 ft | 468 kts | 196° |
| 2026-04-19 11:48 | 21.41566 | 106.36128 | 33974 ft | 469 kts | 196° |
| 2026-04-19 11:48 | 21.35202 | 106.34604 | 33998 ft | 469 kts | 196° |
| 2026-04-19 11:49 | 21.28834 | 106.33081 | 33990 ft | 468 kts | 196° |
| 2026-04-19 11:49 | 21.22484 | 106.31563 | 33981 ft | 468 kts | 196° |
| 2026-04-19 11:50 | 21.16134 | 106.30062 | 33985 ft | 467 kts | 196° |
| 2026-04-19 11:50 | 21.09782 | 106.28555 | 33983 ft | 467 kts | 196° |
| 2026-04-19 11:51 | 21.03442 | 106.27049 | 33980 ft | 467 kts | 196° |
| 2026-04-19 11:51 | 20.97141 | 106.25565 | 33978 ft | 467 kts | 196° |
| 2026-04-19 11:52 | 20.90791 | 106.24062 | 33970 ft | 468 kts | 196° |
| 2026-04-19 11:52 | 20.84439 | 106.22557 | 33977 ft | 468 kts | 196° |
| 2026-04-19 11:53 | 20.78080 | 106.21052 | 33990 ft | 468 kts | 196° |
| 2026-04-19 11:53 | 20.71716 | 106.19546 | 33983 ft | 468 kts | 196° |
| 2026-04-19 11:54 | 20.65359 | 106.18040 | 33965 ft | 468 kts | 195° |
| 2026-04-19 11:54 | 20.58987 | 106.16545 | 33968 ft | 469 kts | 195° |
| 2026-04-19 11:55 | 20.52612 | 106.15053 | 33975 ft | 469 kts | 195° |
| 2026-04-19 11:55 | 20.46240 | 106.13553 | 33975 ft | 469 kts | 195° |
| 2026-04-19 11:56 | 20.39870 | 106.12079 | 33980 ft | 470 kts | 192° |
| 2026-04-19 11:56 | 20.33305 | 106.11722 | 33976 ft | 473 kts | 184° |
| 2026-04-19 11:57 | 20.26725 | 106.11653 | 33986 ft | 473 kts | 184° |
| 2026-04-19 11:57 | 20.20163 | 106.11568 | 33988 ft | 472 kts | 184° |
| 2026-04-19 11:58 | 20.13594 | 106.11488 | 33988 ft | 472 kts | 184° |
| 2026-04-19 11:58 | 20.08138 | 106.11426 | 33988 ft | 471 kts | 184° |
| 2026-04-19 11:59 | 20.01575 | 106.11354 | 33979 ft | 471 kts | 184° |
| 2026-04-19 11:59 | 19.95017 | 106.11280 | 33986 ft | 471 kts | 184° |
| 2026-04-19 12:00 | 19.88458 | 106.11206 | 33989 ft | 471 kts | 184° |
| 2026-04-19 12:00 | 19.81907 | 106.11128 | 33992 ft | 471 kts | 184° |
| 2026-04-19 12:01 | 19.75349 | 106.11049 | 33993 ft | 471 kts | 184° |
| 2026-04-19 12:01 | 19.68831 | 106.10975 | 33986 ft | 471 kts | 184° |
| 2026-04-19 12:02 | 19.62270 | 106.10899 | 33989 ft | 472 kts | 184° |
| 2026-04-19 12:02 | 19.55705 | 106.10826 | 33993 ft | 472 kts | 184° |
| 2026-04-19 12:03 | 19.49137 | 106.10749 | 33993 ft | 472 kts | 184° |
| 2026-04-19 12:03 | 19.42568 | 106.10684 | 33996 ft | 472 kts | 184° |
| 2026-04-19 12:04 | 19.35990 | 106.10609 | 33985 ft | 473 kts | 184° |
| 2026-04-19 12:04 | 19.29405 | 106.10523 | 33989 ft | 473 kts | 184° |
| 2026-04-19 12:05 | 19.22816 | 106.10451 | 33992 ft | 474 kts | 184° |
| 2026-04-19 12:05 | 19.16214 | 106.10391 | 33993 ft | 474 kts | 184° |
| 2026-04-19 12:06 | 19.09608 | 106.10319 | 33995 ft | 475 kts | 184° |
| 2026-04-19 12:06 | 19.03005 | 106.10245 | 33999 ft | 474 kts | 184° |
| 2026-04-19 12:07 | 18.96421 | 106.10170 | 34007 ft | 474 kts | 184° |
| 2026-04-19 12:07 | 18.89817 | 106.10092 | 34007 ft | 474 kts | 184° |
| 2026-04-19 12:08 | 18.83217 | 106.10005 | 34004 ft | 474 kts | 184° |
| 2026-04-19 12:08 | 18.76626 | 106.09918 | 33994 ft | 473 kts | 184° |
| 2026-04-19 12:09 | 18.70040 | 106.09840 | 34002 ft | 474 kts | 184° |
| 2026-04-19 12:09 | 18.63445 | 106.09761 | 34002 ft | 474 kts | 184° |
| 2026-04-19 12:10 | 18.56862 | 106.09684 | 34002 ft | 474 kts | 184° |
| 2026-04-19 12:10 | 18.50312 | 106.09609 | 33997 ft | 474 kts | 184° |
| 2026-04-19 12:11 | 18.43715 | 106.09536 | 34002 ft | 474 kts | 184° |
| 2026-04-19 12:11 | 18.37114 | 106.09470 | 33992 ft | 474 kts | 183° |
| 2026-04-19 12:12 | 18.30510 | 106.09398 | 33996 ft | 475 kts | 183° |
| 2026-04-19 12:12 | 18.23902 | 106.09317 | 33995 ft | 475 kts | 183° |
| 2026-04-19 12:13 | 18.17296 | 106.09240 | 33996 ft | 475 kts | 183° |
| 2026-04-19 12:13 | 18.10679 | 106.09158 | 34002 ft | 475 kts | 183° |
| 2026-04-19 12:14 | 18.04072 | 106.09081 | 34002 ft | 475 kts | 183° |
| 2026-04-19 12:14 | 17.97449 | 106.09018 | 34007 ft | 475 kts | 183° |
| 2026-04-19 12:15 | 17.90838 | 106.08946 | 34004 ft | 475 kts | 183° |
| 2026-04-19 12:15 | 17.84222 | 106.08867 | 34007 ft | 475 kts | 183° |
| 2026-04-19 12:16 | 17.77611 | 106.08793 | 34007 ft | 475 kts | 183° |
| 2026-04-19 12:16 | 17.70992 | 106.08716 | 34011 ft | 475 kts | 183° |
| 2026-04-19 12:17 | 17.64386 | 106.08646 | 34017 ft | 475 kts | 183° |
| 2026-04-19 12:17 | 17.57776 | 106.08569 | 34036 ft | 475 kts | 183° |
| 2026-04-19 12:18 | 17.51221 | 106.08480 | 34034 ft | 474 kts | 183° |
| 2026-04-19 12:18 | 17.44618 | 106.08394 | 34043 ft | 475 kts | 183° |
| 2026-04-19 12:19 | 17.38012 | 106.08320 | 34039 ft | 474 kts | 184° |
| 2026-04-19 12:19 | 17.31495 | 106.07493 | 34042 ft | 472 kts | 191° |
| 2026-04-19 12:20 | 17.25010 | 106.06458 | 34041 ft | 472 kts | 191° |
| 2026-04-19 12:20 | 17.18513 | 106.05420 | 34040 ft | 472 kts | 191° |
| 2026-04-19 12:21 | 17.12014 | 106.04379 | 34038 ft | 472 kts | 191° |
| 2026-04-19 12:21 | 17.05519 | 106.03336 | 34030 ft | 472 kts | 191° |
| 2026-04-19 12:22 | 16.99014 | 106.02292 | 34029 ft | 473 kts | 191° |
| 2026-04-19 12:22 | 16.92524 | 106.01251 | 33852 ft | 471 kts | 191° |
| 2026-04-19 12:23 | 16.86038 | 106.00214 | 33904 ft | 471 kts | 191° |
| 2026-04-19 12:23 | 16.79544 | 105.99168 | 33908 ft | 473 kts | 191° |
| 2026-04-19 12:24 | 16.73027 | 105.98117 | 33897 ft | 475 kts | 191° |
| 2026-04-19 12:24 | 16.66496 | 105.97074 | 33896 ft | 475 kts | 191° |
| 2026-04-19 12:25 | 16.59947 | 105.96041 | 33903 ft | 476 kts | 191° |
| 2026-04-19 12:25 | 16.53437 | 105.95004 | 33905 ft | 476 kts | 191° |
| 2026-04-19 12:26 | 16.46881 | 105.93946 | 33910 ft | 477 kts | 191° |
| 2026-04-19 12:26 | 16.40327 | 105.92896 | 33901 ft | 477 kts | 191° |
| 2026-04-19 12:27 | 16.33761 | 105.91849 | 33904 ft | 478 kts | 191° |
| 2026-04-19 12:27 | 16.27181 | 105.90804 | 33900 ft | 478 kts | 191° |
| 2026-04-19 12:28 | 16.17301 | 105.89244 | 33899 ft | 479 kts | 191° |
| 2026-04-19 12:28 | 16.10716 | 105.88195 | 33906 ft | 479 kts | 191° |
| 2026-04-19 12:29 | 16.04128 | 105.87144 | 33897 ft | 479 kts | 191° |
| 2026-04-19 12:29 | 15.97537 | 105.86093 | 33896 ft | 479 kts | 191° |
| 2026-04-19 12:30 | 15.90952 | 105.85045 | 33900 ft | 479 kts | 191° |
| 2026-04-19 12:30 | 15.84356 | 105.84001 | 33897 ft | 480 kts | 191° |
| 2026-04-19 12:31 | 15.77761 | 105.82967 | 33897 ft | 480 kts | 191° |
| 2026-04-19 12:31 | 15.71146 | 105.81929 | 33885 ft | 480 kts | 190° |
| 2026-04-19 12:32 | 15.64590 | 105.80893 | 33885 ft | 480 kts | 190° |
| 2026-04-19 12:32 | 15.57979 | 105.79852 | 33881 ft | 481 kts | 191° |
| 2026-04-19 12:33 | 15.51359 | 105.78802 | 33885 ft | 481 kts | 190° |
| 2026-04-19 12:33 | 15.44738 | 105.77758 | 33877 ft | 481 kts | 191° |
| 2026-04-19 12:34 | 15.38117 | 105.76707 | 33872 ft | 482 kts | 191° |
| 2026-04-19 12:34 | 15.31488 | 105.75663 | 33881 ft | 482 kts | 190° |
| 2026-04-19 12:35 | 15.28170 | 105.75143 | 33883 ft | 482 kts | 190° |